sensor_id;sensor_type;location;lat;lon;timestamp;pressure;altitude;pressure_sealevel;temperature;humidity
62926;BME280;55732;52.248;-0.844;2023-02-19T00:01:07;101237.37;;;9.65;81.15
62926;BME280;55732;52.248;-0.844;2023-02-19T00:03:34;101237.34;;;9.64;81.09
62926;BME280;55732;52.248;-0.844;2023-02-19T00:06:01;101246.79;;;9.61;81.04
62926;BME280;55732;52.248;-0.844;2023-02-19T00:08:29;101249.39;;;9.59;81.13
62926;BME280;55732;52.248;-0.844;2023-02-19T00:10:59;101247.97;;;9.58;81.03
62926;BME280;55732;52.248;-0.844;2023-02-19T00:13:25;101250.96;;;9.59;81.04
62926;BME280;55732;52.248;-0.844;2023-02-19T00:15:50;101258.17;;;9.59;80.80
62926;BME280;55732;52.248;-0.844;2023-02-19T00:18:15;101261.87;;;9.59;80.72
62926;BME280;55732;52.248;-0.844;2023-02-19T00:20:41;101260.45;;;9.58;80.72
62926;BME280;55732;52.248;-0.844;2023-02-19T00:23:06;101258.66;;;9.57;80.57
62926;BME280;55732;52.248;-0.844;2023-02-19T00:25:35;101263.08;;;9.56;80.49
62926;BME280;55732;52.248;-0.844;2023-02-19T00:28:01;101258.66;;;9.54;80.43
62926;BME280;55732;52.248;-0.844;2023-02-19T00:30:26;101257.57;;;9.52;80.12
62926;BME280;55732;52.248;-0.844;2023-02-19T00:32:52;101261.92;;;9.49;80.08
62926;BME280;55732;52.248;-0.844;2023-02-19T00:35:17;101265.56;;;9.46;80.06
62926;BME280;55732;52.248;-0.844;2023-02-19T00:37:43;101271.16;;;9.44;80.07
62926;BME280;55732;52.248;-0.844;2023-02-19T00:40:08;101280.64;;;9.42;80.03
62926;BME280;55732;52.248;-0.844;2023-02-19T00:42:34;101280.08;;;9.40;79.85
62926;BME280;55732;52.248;-0.844;2023-02-19T00:44:59;101282.70;;;9.38;79.99
62926;BME280;55732;52.248;-0.844;2023-02-19T00:47:25;101286.89;;;9.37;80.01
62926;BME280;55732;52.248;-0.844;2023-02-19T00:49:50;101288.77;;;9.34;79.89
62926;BME280;55732;52.248;-0.844;2023-02-19T00:52:15;101291.89;;;9.31;79.85
62926;BME280;55732;52.248;-0.844;2023-02-19T00:54:41;101292.23;;;9.30;79.96
62926;BME280;55732;52.248;-0.844;2023-02-19T00:57:06;101294.14;;;9.29;79.84
62926;BME280;55732;52.248;-0.844;2023-02-19T00:59:32;101293.07;;;9.28;79.93
62926;BME280;55732;52.248;-0.844;2023-02-19T01:01:57;101298.67;;;9.27;79.91
62926;BME280;55732;52.248;-0.844;2023-02-19T01:04:22;101303.95;;;9.27;79.69
62926;BME280;55732;52.248;-0.844;2023-02-19T01:06:48;101308.34;;;9.26;79.79
62926;BME280;55732;52.248;-0.844;2023-02-19T01:09:13;101308.17;;;9.27;79.68
62926;BME280;55732;52.248;-0.844;2023-02-19T01:11:39;101309.43;;;9.29;79.61
62926;BME280;55732;52.248;-0.844;2023-02-19T01:14:04;101316.13;;;9.29;79.64
62926;BME280;55732;52.248;-0.844;2023-02-19T01:16:30;101317.19;;;9.30;79.46
62926;BME280;55732;52.248;-0.844;2023-02-19T01:18:56;101325.09;;;9.30;79.35
62926;BME280;55732;52.248;-0.844;2023-02-19T01:21:24;101326.96;;;9.26;79.29
62926;BME280;55732;52.248;-0.844;2023-02-19T01:23:51;101323.73;;;9.22;79.24
62926;BME280;55732;52.248;-0.844;2023-02-19T01:26:20;101322.60;;;9.17;79.32
62926;BME280;55732;52.248;-0.844;2023-02-19T01:28:46;101321.48;;;9.14;79.29
62926;BME280;55732;52.248;-0.844;2023-02-19T01:31:16;101323.35;;;9.10;79.38
62926;BME280;55732;52.248;-0.844;2023-02-19T01:33:46;101329.27;;;9.06;79.33
62926;BME280;55732;52.248;-0.844;2023-02-19T01:36:12;101333.98;;;9.04;79.55
62926;BME280;55732;52.248;-0.844;2023-02-19T01:38:38;101329.38;;;9.03;79.47
62926;BME280;55732;52.248;-0.844;2023-02-19T01:41:06;101330.98;;;9.03;79.25
62926;BME280;55732;52.248;-0.844;2023-02-19T01:43:34;101328.52;;;9.04;79.37
62926;BME280;55732;52.248;-0.844;2023-02-19T01:46:00;101323.98;;;9.05;79.34
62926;BME280;55732;52.248;-0.844;2023-02-19T01:48:33;101326.11;;;9.06;79.29
62926;BME280;55732;52.248;-0.844;2023-02-19T01:51:09;101329.81;;;9.07;79.33
62926;BME280;55732;52.248;-0.844;2023-02-19T01:53:40;101334.93;;;9.08;79.33
62926;BME280;55732;52.248;-0.844;2023-02-19T01:56:08;101335.46;;;9.09;79.43
62926;BME280;55732;52.248;-0.844;2023-02-19T01:58:35;101338.80;;;9.10;79.16
62926;BME280;55732;52.248;-0.844;2023-02-19T02:01:03;101335.80;;;9.10;79.16
62926;BME280;55732;52.248;-0.844;2023-02-19T02:03:30;101338.79;;;9.09;79.15
62926;BME280;55732;52.248;-0.844;2023-02-19T02:06:06;101343.36;;;9.08;79.19
62926;BME280;55732;52.248;-0.844;2023-02-19T02:08:33;101348.57;;;9.05;79.11
62926;BME280;55732;52.248;-0.844;2023-02-19T02:11:19;101347.98;;;9.01;79.03
62926;BME280;55732;52.248;-0.844;2023-02-19T02:13:45;101345.79;;;8.98;79.05
62926;BME280;55732;52.248;-0.844;2023-02-19T02:19:13;101355.61;;;8.95;79.17
62926;BME280;55732;52.248;-0.844;2023-02-19T02:27:31;101377.61;;;8.89;79.29
62926;BME280;55732;52.248;-0.844;2023-02-19T02:32:29;101374.80;;;8.89;79.14
62926;BME280;55732;52.248;-0.844;2023-02-19T02:35:02;101373.89;;;8.87;79.19
62926;BME280;55732;52.248;-0.844;2023-02-19T02:37:33;101378.59;;;8.85;79.26
62926;BME280;55732;52.248;-0.844;2023-02-19T02:40:01;101382.83;;;8.86;79.32
62926;BME280;55732;52.248;-0.844;2023-02-19T02:42:27;101391.09;;;8.87;79.43
62926;BME280;55732;52.248;-0.844;2023-02-19T02:44:54;101388.66;;;8.89;79.44
62926;BME280;55732;52.248;-0.844;2023-02-19T02:47:58;101385.51;;;8.89;79.42
62926;BME280;55732;52.248;-0.844;2023-02-19T02:50:29;101384.30;;;8.90;79.33
62926;BME280;55732;52.248;-0.844;2023-02-19T02:53:01;101385.04;;;8.91;79.52
62926;BME280;55732;52.248;-0.844;2023-02-19T02:55:48;101383.80;;;8.92;79.35
62926;BME280;55732;52.248;-0.844;2023-02-19T02:58:17;101387.70;;;8.93;79.41
62926;BME280;55732;52.248;-0.844;2023-02-19T03:00:48;101397.20;;;8.94;79.67
62926;BME280;55732;52.248;-0.844;2023-02-19T03:03:37;101393.16;;;8.94;79.78
62926;BME280;55732;52.248;-0.844;2023-02-19T03:06:05;101393.85;;;8.93;79.66
62926;BME280;55732;52.248;-0.844;2023-02-19T03:08:40;101405.05;;;8.91;79.77
62926;BME280;55732;52.248;-0.844;2023-02-19T03:11:09;101408.02;;;8.91;79.86
62926;BME280;55732;52.248;-0.844;2023-02-19T03:13:56;101416.64;;;8.91;79.89
62926;BME280;55732;52.248;-0.844;2023-02-19T03:16:43;101420.15;;;8.91;79.84
62926;BME280;55732;52.248;-0.844;2023-02-19T03:19:31;101420.84;;;8.90;80.00
62926;BME280;55732;52.248;-0.844;2023-02-19T03:22:04;101426.27;;;8.89;79.99
62926;BME280;55732;52.248;-0.844;2023-02-19T03:24:37;101432.73;;;8.88;80.12
62926;BME280;55732;52.248;-0.844;2023-02-19T03:27:26;101435.70;;;8.88;80.30
62926;BME280;55732;52.248;-0.844;2023-02-19T03:29:54;101437.63;;;8.87;80.38
62926;BME280;55732;52.248;-0.844;2023-02-19T03:32:31;101434.97;;;8.86;80.14
62926;BME280;55732;52.248;-0.844;2023-02-19T03:35:05;101435.27;;;8.82;80.14
62926;BME280;55732;52.248;-0.844;2023-02-19T03:37:51;101434.80;;;8.77;80.25
62926;BME280;55732;52.248;-0.844;2023-02-19T03:40:20;101435.40;;;8.71;80.26
62926;BME280;55732;52.248;-0.844;2023-02-19T03:43:12;101431.63;;;8.67;80.28
62926;BME280;55732;52.248;-0.844;2023-02-19T03:48:39;101438.66;;;8.59;80.41
62926;BME280;55732;52.248;-0.844;2023-02-19T03:51:28;101443.29;;;8.54;80.44
62926;BME280;55732;52.248;-0.844;2023-02-19T03:54:19;101447.27;;;8.51;80.54
62926;BME280;55732;52.248;-0.844;2023-02-19T03:59:42;101454.96;;;8.49;80.67
62926;BME280;55732;52.248;-0.844;2023-02-19T04:04:50;101459.96;;;8.45;80.85
62926;BME280;55732;52.248;-0.844;2023-02-19T04:07:20;101468.04;;;8.45;80.91
62926;BME280;55732;52.248;-0.844;2023-02-19T04:09:47;101480.00;;;8.46;81.04
62926;BME280;55732;52.248;-0.844;2023-02-19T04:12:15;101492.86;;;8.49;80.93
62926;BME280;55732;52.248;-0.844;2023-02-19T04:14:51;101496.94;;;8.51;80.98
62926;BME280;55732;52.248;-0.844;2023-02-19T04:17:41;101495.79;;;8.55;80.95
62926;BME280;55732;52.248;-0.844;2023-02-19T04:20:10;101498.66;;;8.58;81.00
62926;BME280;55732;52.248;-0.844;2023-02-19T04:22:37;101498.52;;;8.58;81.00
62926;BME280;55732;52.248;-0.844;2023-02-19T04:25:04;101502.20;;;8.59;80.99
62926;BME280;55732;52.248;-0.844;2023-02-19T04:27:29;101508.02;;;8.59;80.96
62926;BME280;55732;52.248;-0.844;2023-02-19T04:29:55;101511.71;;;8.60;81.16
62926;BME280;55732;52.248;-0.844;2023-02-19T04:32:20;101511.38;;;8.61;81.16
62926;BME280;55732;52.248;-0.844;2023-02-19T04:34:45;101505.95;;;8.62;81.01
62926;BME280;55732;52.248;-0.844;2023-02-19T04:37:11;101505.59;;;8.62;80.96
62926;BME280;55732;52.248;-0.844;2023-02-19T04:39:37;101505.05;;;8.61;80.93
62926;BME280;55732;52.248;-0.844;2023-02-19T04:42:02;101504.48;;;8.58;80.94
62926;BME280;55732;52.248;-0.844;2023-02-19T04:44:28;101510.18;;;8.55;80.79
62926;BME280;55732;52.248;-0.844;2023-02-19T04:46:54;101512.73;;;8.50;80.78
62926;BME280;55732;52.248;-0.844;2023-02-19T04:49:19;101515.09;;;8.46;80.84
62926;BME280;55732;52.248;-0.844;2023-02-19T04:51:44;101519.22;;;8.43;80.97
62926;BME280;55732;52.248;-0.844;2023-02-19T04:54:10;101519.36;;;8.42;81.15
62926;BME280;55732;52.248;-0.844;2023-02-19T04:56:35;101525.49;;;8.42;81.16
62926;BME280;55732;52.248;-0.844;2023-02-19T04:59:01;101526.55;;;8.42;81.06
62926;BME280;55732;52.248;-0.844;2023-02-19T05:01:26;101536.02;;;8.41;81.14
62926;BME280;55732;52.248;-0.844;2023-02-19T05:03:52;101537.95;;;8.41;81.32
62926;BME280;55732;52.248;-0.844;2023-02-19T05:06:17;101551.50;;;8.43;81.17
62926;BME280;55732;52.248;-0.844;2023-02-19T05:08:43;101562.06;;;8.44;81.18
62926;BME280;55732;52.248;-0.844;2023-02-19T05:11:10;101570.02;;;8.46;81.23
62926;BME280;55732;52.248;-0.844;2023-02-19T05:13:36;101572.33;;;8.47;81.30
62926;BME280;55732;52.248;-0.844;2023-02-19T05:16:08;101580.27;;;8.49;81.22
62926;BME280;55732;52.248;-0.844;2023-02-19T05:18:34;101585.19;;;8.50;81.19
62926;BME280;55732;52.248;-0.844;2023-02-19T05:21:00;101588.17;;;8.49;80.89
62926;BME280;55732;52.248;-0.844;2023-02-19T05:23:27;101588.45;;;8.46;80.54
62926;BME280;55732;52.248;-0.844;2023-02-19T05:25:53;101590.93;;;8.41;80.26
62926;BME280;55732;52.248;-0.844;2023-02-19T05:28:18;101592.24;;;8.36;79.79
62926;BME280;55732;52.248;-0.844;2023-02-19T05:30:48;101599.23;;;8.29;79.29
62926;BME280;55732;52.248;-0.844;2023-02-19T05:33:15;101606.45;;;8.23;79.21
62926;BME280;55732;52.248;-0.844;2023-02-19T05:35:48;101608.05;;;8.17;79.19
62926;BME280;55732;52.248;-0.844;2023-02-19T05:38:15;101610.02;;;8.12;79.14
62926;BME280;55732;52.248;-0.844;2023-02-19T05:40:41;101606.54;;;8.06;79.01
62926;BME280;55732;52.248;-0.844;2023-02-19T05:43:07;101617.46;;;8.01;78.99
62926;BME280;55732;52.248;-0.844;2023-02-19T05:45:33;101626.61;;;7.95;79.05
62926;BME280;55732;52.248;-0.844;2023-02-19T05:47:58;101626.67;;;7.90;79.04
62926;BME280;55732;52.248;-0.844;2023-02-19T05:50:24;101635.83;;;7.85;78.91
62926;BME280;55732;52.248;-0.844;2023-02-19T05:52:50;101639.20;;;7.81;78.66
62926;BME280;55732;52.248;-0.844;2023-02-19T05:55:15;101640.86;;;7.77;78.55
62926;BME280;55732;52.248;-0.844;2023-02-19T05:57:42;101648.45;;;7.73;78.74
62926;BME280;55732;52.248;-0.844;2023-02-19T06:00:11;101652.71;;;7.69;78.60
62926;BME280;55732;52.248;-0.844;2023-02-19T06:02:38;101648.79;;;7.65;78.46
62926;BME280;55732;52.248;-0.844;2023-02-19T06:05:04;101644.48;;;7.62;78.40
62926;BME280;55732;52.248;-0.844;2023-02-19T06:07:30;101639.10;;;7.58;78.42
62926;BME280;55732;52.248;-0.844;2023-02-19T06:09:56;101639.73;;;7.54;78.43
62926;BME280;55732;52.248;-0.844;2023-02-19T06:12:21;101650.11;;;7.50;78.36
62926;BME280;55732;52.248;-0.844;2023-02-19T06:14:47;101666.88;;;7.48;78.30
62926;BME280;55732;52.248;-0.844;2023-02-19T06:17:12;101670.30;;;7.46;78.26
62926;BME280;55732;52.248;-0.844;2023-02-19T06:19:37;101670.55;;;7.42;78.12
62926;BME280;55732;52.248;-0.844;2023-02-19T06:22:03;101666.61;;;7.39;78.16
62926;BME280;55732;52.248;-0.844;2023-02-19T06:24:28;101666.69;;;7.36;78.16
62926;BME280;55732;52.248;-0.844;2023-02-19T06:26:54;101668.69;;;7.33;78.22
62926;BME280;55732;52.248;-0.844;2023-02-19T06:29:20;101669.85;;;7.30;78.25
62926;BME280;55732;52.248;-0.844;2023-02-19T06:31:45;101678.16;;;7.27;78.16
62926;BME280;55732;52.248;-0.844;2023-02-19T06:34:11;101685.61;;;7.24;78.24
62926;BME280;55732;52.248;-0.844;2023-02-19T06:36:36;101690.83;;;7.23;78.20
62926;BME280;55732;52.248;-0.844;2023-02-19T06:39:03;101678.16;;;7.21;78.07
62926;BME280;55732;52.248;-0.844;2023-02-19T06:41:29;101668.30;;;7.19;78.19
62926;BME280;55732;52.248;-0.844;2023-02-19T06:43:56;101670.73;;;7.18;78.34
62926;BME280;55732;52.248;-0.844;2023-02-19T06:46:21;101670.33;;;7.16;78.23
62926;BME280;55732;52.248;-0.844;2023-02-19T06:48:47;101681.13;;;7.15;78.33
62926;BME280;55732;52.248;-0.844;2023-02-19T06:51:15;101684.08;;;7.14;78.35
62926;BME280;55732;52.248;-0.844;2023-02-19T06:53:43;101701.40;;;7.13;78.18
62926;BME280;55732;52.248;-0.844;2023-02-19T06:58:54;101712.97;;;7.14;78.17
62926;BME280;55732;52.248;-0.844;2023-02-19T07:01:20;101714.91;;;7.14;78.18
62926;BME280;55732;52.248;-0.844;2023-02-19T07:03:46;101718.41;;;7.14;78.27
62926;BME280;55732;52.248;-0.844;2023-02-19T07:06:12;101718.60;;;7.14;78.43
62926;BME280;55732;52.248;-0.844;2023-02-19T07:08:38;101725.27;;;7.15;78.27
62926;BME280;55732;52.248;-0.844;2023-02-19T07:11:03;101733.89;;;7.16;78.29
62926;BME280;55732;52.248;-0.844;2023-02-19T07:13:29;101736.38;;;7.17;78.19
62926;BME280;55732;52.248;-0.844;2023-02-19T07:16:06;101740.80;;;7.18;78.15
62926;BME280;55732;52.248;-0.844;2023-02-19T07:18:33;101744.00;;;7.20;78.28
62926;BME280;55732;52.248;-0.844;2023-02-19T07:21:17;101748.44;;;7.22;78.31
62926;BME280;55732;52.248;-0.844;2023-02-19T07:23:44;101751.98;;;7.23;78.55
62926;BME280;55732;52.248;-0.844;2023-02-19T07:26:15;101751.67;;;7.24;78.70
62926;BME280;55732;52.248;-0.844;2023-02-19T07:28:45;101752.70;;;7.24;78.78
62926;BME280;55732;52.248;-0.844;2023-02-19T07:31:11;101752.35;;;7.24;78.67
62926;BME280;55732;52.248;-0.844;2023-02-19T07:33:37;101763.23;;;7.25;78.55
62926;BME280;55732;52.248;-0.844;2023-02-19T07:36:05;101772.23;;;7.27;78.40
62926;BME280;55732;52.248;-0.844;2023-02-19T07:38:31;101778.80;;;7.29;78.39
62926;BME280;55732;52.248;-0.844;2023-02-19T07:40:59;101791.13;;;7.32;78.33
62926;BME280;55732;52.248;-0.844;2023-02-19T07:43:26;101799.32;;;7.36;78.27
62926;BME280;55732;52.248;-0.844;2023-02-19T07:45:52;101813.45;;;7.39;78.35
62926;BME280;55732;52.248;-0.844;2023-02-19T07:48:18;101818.27;;;7.42;78.26
62926;BME280;55732;52.248;-0.844;2023-02-19T07:53:16;101841.44;;;7.49;77.93
62926;BME280;55732;52.248;-0.844;2023-02-19T07:55:42;101842.45;;;7.53;78.02
62926;BME280;55732;52.248;-0.844;2023-02-19T07:58:07;101830.14;;;7.58;77.88
62926;BME280;55732;52.248;-0.844;2023-02-19T08:00:33;101827.23;;;7.66;77.61
62926;BME280;55732;52.248;-0.844;2023-02-19T08:02:58;101820.48;;;7.74;77.36
62926;BME280;55732;52.248;-0.844;2023-02-19T08:05:32;101806.55;;;7.83;77.23
62926;BME280;55732;52.248;-0.844;2023-02-19T08:07:59;101810.88;;;7.93;77.05
62926;BME280;55732;52.248;-0.844;2023-02-19T08:10:25;101824.77;;;8.00;76.83
62926;BME280;55732;52.248;-0.844;2023-02-19T08:13:11;101827.08;;;8.08;76.67
62926;BME280;55732;52.248;-0.844;2023-02-19T08:15:44;101817.64;;;8.15;76.39
62926;BME280;55732;52.248;-0.844;2023-02-19T08:18:11;101813.10;;;8.22;76.32
62926;BME280;55732;52.248;-0.844;2023-02-19T08:20:37;101819.86;;;8.31;76.27
62926;BME280;55732;52.248;-0.844;2023-02-19T08:23:03;101821.46;;;8.38;76.20
62926;BME280;55732;52.248;-0.844;2023-02-19T08:25:28;101820.34;;;8.48;76.02
62926;BME280;55732;52.248;-0.844;2023-02-19T08:27:54;101826.12;;;8.60;75.84
62926;BME280;55732;52.248;-0.844;2023-02-19T08:30:20;101814.59;;;8.76;75.55
62926;BME280;55732;52.248;-0.844;2023-02-19T08:32:46;101804.86;;;8.87;75.29
62926;BME280;55732;52.248;-0.844;2023-02-19T08:35:11;101798.07;;;8.96;75.07
62926;BME280;55732;52.248;-0.844;2023-02-19T08:37:36;101803.38;;;9.05;74.79
62926;BME280;55732;52.248;-0.844;2023-02-19T08:40:02;101808.09;;;9.12;74.82
62926;BME280;55732;52.248;-0.844;2023-02-19T08:42:28;101820.60;;;9.19;74.68
62926;BME280;55732;52.248;-0.844;2023-02-19T08:44:53;101828.71;;;9.28;74.51
62926;BME280;55732;52.248;-0.844;2023-02-19T08:47:19;101829.89;;;9.33;74.31
62926;BME280;55732;52.248;-0.844;2023-02-19T08:49:44;101834.98;;;9.40;74.26
62926;BME280;55732;52.248;-0.844;2023-02-19T08:52:10;101836.84;;;9.45;74.10
62926;BME280;55732;52.248;-0.844;2023-02-19T08:54:36;101834.11;;;9.49;73.86
62926;BME280;55732;52.248;-0.844;2023-02-19T08:57:01;101827.73;;;9.46;73.68
62926;BME280;55732;52.248;-0.844;2023-02-19T08:59:30;101852.10;;;9.58;73.68
62926;BME280;55732;52.248;-0.844;2023-02-19T09:01:59;101846.65;;;9.65;73.40
62926;BME280;55732;52.248;-0.844;2023-02-19T09:04:25;101845.92;;;9.73;73.32
62926;BME280;55732;52.248;-0.844;2023-02-19T09:06:51;101850.30;;;9.79;73.09
62926;BME280;55732;52.248;-0.844;2023-02-19T09:09:16;101866.30;;;9.78;73.00
62926;BME280;55732;52.248;-0.844;2023-02-19T09:11:42;101881.81;;;9.81;73.42
62926;BME280;55732;52.248;-0.844;2023-02-19T09:14:07;101897.65;;;9.88;73.11
62926;BME280;55732;52.248;-0.844;2023-02-19T09:16:34;101904.43;;;9.93;73.00
62926;BME280;55732;52.248;-0.844;2023-02-19T09:19:00;101897.41;;;9.94;72.93
62926;BME280;55732;52.248;-0.844;2023-02-19T09:21:26;101883.77;;;9.97;73.00
62926;BME280;55732;52.248;-0.844;2023-02-19T09:23:51;101875.51;;;9.98;72.50
62926;BME280;55732;52.248;-0.844;2023-02-19T09:26:17;101871.19;;;10.00;72.39
62926;BME280;55732;52.248;-0.844;2023-02-19T09:28:42;101871.06;;;10.03;72.30
62926;BME280;55732;52.248;-0.844;2023-02-19T09:31:10;101869.56;;;10.07;72.20
62926;BME280;55732;52.248;-0.844;2023-02-19T09:33:36;101871.55;;;10.18;72.05
62926;BME280;55732;52.248;-0.844;2023-02-19T09:36:03;101880.44;;;10.29;71.87
62926;BME280;55732;52.248;-0.844;2023-02-19T09:38:28;101881.23;;;10.41;71.77
62926;BME280;55732;52.248;-0.844;2023-02-19T09:40:58;101873.45;;;10.50;71.46
62926;BME280;55732;52.248;-0.844;2023-02-19T09:43:30;101862.20;;;10.59;71.23
62926;BME280;55732;52.248;-0.844;2023-02-19T09:46:08;101859.54;;;10.68;70.52
62926;BME280;55732;52.248;-0.844;2023-02-19T09:48:36;101861.98;;;10.76;70.62
62926;BME280;55732;52.248;-0.844;2023-02-19T09:51:02;101867.73;;;10.92;70.35
62926;BME280;55732;52.248;-0.844;2023-02-19T09:53:41;101881.35;;;11.15;69.80
62926;BME280;55732;52.248;-0.844;2023-02-19T09:56:10;101889.27;;;11.45;69.37
62926;BME280;55732;52.248;-0.844;2023-02-19T09:58:45;101892.03;;;11.74;68.98
62926;BME280;55732;52.248;-0.844;2023-02-19T10:01:11;101904.94;;;11.98;67.89
62926;BME280;55732;52.248;-0.844;2023-02-19T10:03:38;101916.70;;;12.07;67.68
62926;BME280;55732;52.248;-0.844;2023-02-19T10:06:07;101915.10;;;12.06;67.34
62926;BME280;55732;52.248;-0.844;2023-02-19T10:08:39;101913.98;;;12.00;66.96
62926;BME280;55732;52.248;-0.844;2023-02-19T10:11:05;101913.71;;;11.95;66.70
62926;BME280;55732;52.248;-0.844;2023-02-19T10:13:36;101914.25;;;11.96;66.48
62926;BME280;55732;52.248;-0.844;2023-02-19T10:16:06;101913.19;;;11.95;66.43
62926;BME280;55732;52.248;-0.844;2023-02-19T10:18:41;101919.65;;;11.90;66.08
62926;BME280;55732;52.248;-0.844;2023-02-19T10:21:07;101928.02;;;11.84;66.02
62926;BME280;55732;52.248;-0.844;2023-02-19T10:23:35;101939.22;;;11.78;66.15
62926;BME280;55732;52.248;-0.844;2023-02-19T10:26:00;101923.55;;;11.70;65.99
62926;BME280;55732;52.248;-0.844;2023-02-19T10:28:28;101922.73;;;11.74;66.47
62926;BME280;55732;52.248;-0.844;2023-02-19T10:30:57;101931.82;;;11.78;66.24
62926;BME280;55732;52.248;-0.844;2023-02-19T10:33:24;101940.85;;;11.81;65.92
62926;BME280;55732;52.248;-0.844;2023-02-19T10:38:28;101932.48;;;11.87;65.41
62926;BME280;55732;52.248;-0.844;2023-02-19T10:41:06;101926.63;;;11.85;65.20
62926;BME280;55732;52.248;-0.844;2023-02-19T10:43:39;101924.35;;;11.86;65.05
62926;BME280;55732;52.248;-0.844;2023-02-19T10:46:18;101936.06;;;11.89;65.13
62926;BME280;55732;52.248;-0.844;2023-02-19T10:48:50;101938.75;;;11.93;64.98
62926;BME280;55732;52.248;-0.844;2023-02-19T10:51:18;101937.10;;;12.01;64.88
62926;BME280;55732;52.248;-0.844;2023-02-19T10:53:49;101933.50;;;11.96;64.84
62926;BME280;55732;52.248;-0.844;2023-02-19T10:56:24;101931.36;;;11.95;64.84
62926;BME280;55732;52.248;-0.844;2023-02-19T10:58:50;101931.14;;;11.93;64.61
62926;BME280;55732;52.248;-0.844;2023-02-19T11:01:17;101928.70;;;11.95;64.69
62926;BME280;55732;52.248;-0.844;2023-02-19T11:03:44;101925.36;;;11.95;64.49
62926;BME280;55732;52.248;-0.844;2023-02-19T11:06:11;101917.44;;;11.97;64.63
62926;BME280;55732;52.248;-0.844;2023-02-19T11:08:56;101922.23;;;11.97;64.50
62926;BME280;55732;52.248;-0.844;2023-02-19T11:11:31;101921.08;;;11.92;64.29
62926;BME280;55732;52.248;-0.844;2023-02-19T11:14:01;101913.27;;;11.89;64.31
62926;BME280;55732;52.248;-0.844;2023-02-19T11:16:41;101914.55;;;11.91;64.18
62926;BME280;55732;52.248;-0.844;2023-02-19T11:21:46;101916.92;;;12.22;64.08
62926;BME280;55732;52.248;-0.844;2023-02-19T11:24:25;101919.44;;;12.39;63.87
62926;BME280;55732;52.248;-0.844;2023-02-19T11:26:52;101920.50;;;12.54;63.78
62926;BME280;55732;52.248;-0.844;2023-02-19T11:29:20;101918.15;;;12.64;63.44
62926;BME280;55732;52.248;-0.844;2023-02-19T11:31:47;101913.84;;;12.72;62.95
62926;BME280;55732;52.248;-0.844;2023-02-19T11:36:39;101919.28;;;12.86;62.70
62926;BME280;55732;52.248;-0.844;2023-02-19T11:44:28;101901.48;;;13.24;62.16
62926;BME280;55732;52.248;-0.844;2023-02-19T11:57:47;101890.52;;;13.47;61.26
62926;BME280;55732;52.248;-0.844;2023-02-19T12:00:35;101881.94;;;13.58;61.09
62926;BME280;55732;52.248;-0.844;2023-02-19T12:08:45;101877.48;;;13.54;61.00
62926;BME280;55732;52.248;-0.844;2023-02-19T12:11:39;101878.55;;;13.53;60.74
62926;BME280;55732;52.248;-0.844;2023-02-19T12:17:32;101869.45;;;13.45;61.09
62926;BME280;55732;52.248;-0.844;2023-02-19T12:22:31;101866.05;;;13.40;61.63
62926;BME280;55732;52.248;-0.844;2023-02-19T12:25:13;101865.36;;;13.42;61.55
62926;BME280;55732;52.248;-0.844;2023-02-19T12:41:28;101858.20;;;13.84;61.14
62926;BME280;55732;52.248;-0.844;2023-02-19T12:44:21;101852.92;;;13.88;60.90
62926;BME280;55732;52.248;-0.844;2023-02-19T12:46:59;101843.91;;;13.90;60.93
62926;BME280;55732;52.248;-0.844;2023-02-19T12:52:40;101848.88;;;13.94;60.96
62926;BME280;55732;52.248;-0.844;2023-02-19T12:55:23;101842.15;;;13.93;60.73
62926;BME280;55732;52.248;-0.844;2023-02-19T12:57:50;101848.13;;;13.85;60.52
62926;BME280;55732;52.248;-0.844;2023-02-19T13:00:34;101848.25;;;13.76;60.50
62926;BME280;55732;52.248;-0.844;2023-02-19T13:03:11;101839.87;;;13.66;60.52
62926;BME280;55732;52.248;-0.844;2023-02-19T13:06:02;101832.73;;;13.58;60.82
62926;BME280;55732;52.248;-0.844;2023-02-19T13:08:45;101822.09;;;13.52;60.88
62926;BME280;55732;52.248;-0.844;2023-02-19T13:11:19;101818.86;;;13.45;60.53
62926;BME280;55732;52.248;-0.844;2023-02-19T13:13:48;101823.09;;;13.42;60.79
62926;BME280;55732;52.248;-0.844;2023-02-19T13:16:18;101831.74;;;13.41;60.52
62926;BME280;55732;52.248;-0.844;2023-02-19T13:18:50;101835.43;;;13.38;60.22
62926;BME280;55732;52.248;-0.844;2023-02-19T13:21:20;101823.92;;;13.36;60.20
62926;BME280;55732;52.248;-0.844;2023-02-19T13:24:10;101806.76;;;13.36;60.58
62926;BME280;55732;52.248;-0.844;2023-02-19T13:32:37;101802.50;;;13.35;60.80
62926;BME280;55732;52.248;-0.844;2023-02-19T13:35:20;101799.84;;;13.33;60.82
62926;BME280;55732;52.248;-0.844;2023-02-19T13:37:49;101792.59;;;13.31;61.03
62926;BME280;55732;52.248;-0.844;2023-02-19T13:42:54;101782.85;;;13.33;61.06
62926;BME280;55732;52.248;-0.844;2023-02-19T13:45:29;101782.34;;;13.35;61.41
62926;BME280;55732;52.248;-0.844;2023-02-19T13:50:30;101799.00;;;13.39;61.02
62926;BME280;55732;52.248;-0.844;2023-02-19T13:52:57;101797.41;;;13.39;60.75
62926;BME280;55732;52.248;-0.844;2023-02-19T14:04:18;101805.34;;;13.33;60.22
62926;BME280;55732;52.248;-0.844;2023-02-19T14:14:54;101798.95;;;13.34;60.25
62926;BME280;55732;52.248;-0.844;2023-02-19T14:25:37;101803.91;;;13.34;59.45
62926;BME280;55732;52.248;-0.844;2023-02-19T14:30:45;101806.34;;;13.27;59.43
62926;BME280;55732;52.248;-0.844;2023-02-19T14:33:15;101803.69;;;13.27;59.43
62926;BME280;55732;52.248;-0.844;2023-02-19T14:35:45;101795.91;;;13.27;59.50
62926;BME280;55732;52.248;-0.844;2023-02-19T14:38:19;101792.00;;;13.25;59.20
62926;BME280;55732;52.248;-0.844;2023-02-19T14:40:46;101784.54;;;13.21;59.17
62926;BME280;55732;52.248;-0.844;2023-02-19T14:43:17;101780.98;;;13.16;59.23
62926;BME280;55732;52.248;-0.844;2023-02-19T14:45:58;101781.98;;;13.13;59.32
62926;BME280;55732;52.248;-0.844;2023-02-19T14:48:29;101778.95;;;13.10;59.56
62926;BME280;55732;52.248;-0.844;2023-02-19T14:51:10;101771.52;;;13.08;59.34
62926;BME280;55732;52.248;-0.844;2023-02-19T14:53:42;101762.48;;;13.07;59.50
62926;BME280;55732;52.248;-0.844;2023-02-19T14:56:22;101755.79;;;13.09;59.61